Iles-de-la-Madeleine, Canada
Current Conditions -  °F | °C
As of 12:00 PM on Friday 24 Oct 2014 (Local Time) from CYGR Reporting Station
Light Rain Light Rain  
Wind Chill: 50°   Ceiling: 400
Heat Index: 50°   Visibility: 3mi
Dew Point: 50°   Wind: 21mph
Humidity: 100%   Direction: 70°ENE
Pressure: 29.69"   Gusts: 29mph
Location:  47.42°N, 61.77°W
Report Text: CYGR 241500Z 07018G25KT 3SM -RA BR OVC004 10/10 A2969 RMK SF8 SLP054
Loading
Personal Weather Stations






























Interactive Weather Map
Tropical Storm Tracking
New forecast layout! Learn more

10-Day Weather Forecast

Advertisements
Track Severe Weather on mobile